13°C Temp
11°C Dewpoint
% Humidity
Temperature
21 KM/H
13 MPH
11 KTS
190°
Due South

Wind Speed
Partly Cloudy
Conditions
Pressure 1001.92 (hPa) - 29.59 (in)
Visibility 6.2 (mi) - 10.0 (km)

Current Conditions
EHLW
Location 6km (3.2mi)
Metar :EHLW 190926Z AUTO 19011KT 150V230 9999 FEW010 SCT032 BKN064 13/11 Q1002 BLU
Sat 19th October 11:26 am

Airport
  Metar Aviation API Data Provided by https://www.checkwx.com/ PHP scripts by weather34.com ©2019